METAR Data
IDs: Format: Raw Decoded Include TAF

Data at: 0913 UTC 26 Jan 2020

KUNU 260855Z AUTO 27006KT 7SM OVC007 00/M01 A2987 RMK AO2 T00001006
KUNU 260835Z AUTO 29006KT 10SM OVC007 00/M01 A2987 RMK AO2 T00001006
KUNU 260815Z AUTO 27006KT 10SM OVC007 00/M01 A2987 RMK AO2 T00001006
KUNU 260755Z AUTO 26005KT 10SM OVC007 00/00 A2987 RMK AO2 T00001005
KUNU 260735Z AUTO 26005KT 10SM OVC007 00/00 A2987 RMK AO2 T00001005
KUNU 260715Z AUTO 27004KT 10SM OVC007 00/00 A2987 RMK AO2 T00001004
KUNU 260655Z AUTO 26004KT 10SM OVC007 00/00 A2987 RMK AO2 T00011003
KUNU 260635Z AUTO 27003KT 10SM BKN007 BKN013 OVC032 00/00 A2987 RMK AO2 T00011002
KUNU 260615Z AUTO 27003KT 10SM BKN007 BKN024 OVC032 00/00 A2986 RMK AO2 T00011002
KUNU 260555Z AUTO 26004KT 10SM BKN007 OVC024 00/00 A2986 RMK AO2 T00011002 10004 20000 400061004
KUNU 260535Z AUTO 27004KT 10SM BKN007 OVC021 00/00 A2987 RMK AO2 T00011001
KUNU 260515Z AUTO 26004KT 10SM BKN007 OVC021 00/00 A2986 RMK AO2 T00010000
KUNU 260455Z AUTO 27004KT 10SM BKN005 OVC023 00/00 A2986 RMK AO2 T00010000
KUNU 260435Z AUTO 00000KT 10SM OVC005 00/00 A2986 RMK AO2 T00010000
KUNU 260415Z AUTO 26003KT 7SM OVC005 00/00 A2986 RMK AO2 T00010000
KUNU 260355Z AUTO 26003KT 4SM BR OVC005 00/00 A2985 RMK AO2 T00020000
KUNU 260335Z AUTO 00000KT 2 1/2SM -RA OVC005 00/00 A2985 RMK AO2 T00020000
KUNU 260315Z AUTO 26003KT 10SM OVC005 00/00 A2985 RMK AO2 T00010000
KUNU 260255Z AUTO 00000KT 5SM UP OVC007 00/00 A2984 RMK AO2 T00000000
KUNU 260235Z AUTO 00000KT 4SM -RA OVC007 00/00 A2985 RMK AO2 T00010000
KUNU 260215Z AUTO 00000KT 7SM -SN BKN009 OVC019 00/00 A2985 RMK AO2 T00010000
KUNU 260155Z AUTO 00000KT 7SM -SN OVC012 00/00 A2985 RMK AO2 T00000000
KUNU 260135Z AUTO 00000KT 5SM -SN SCT008 BKN018 OVC030 00/00 A2985 RMK AO2 T00010000
KUNU 260115Z AUTO 28003KT 7SM SCT008 SCT011 OVC016 00/00 A2985 RMK AO2 T00010000
KUNU 260055Z AUTO 00000KT 10SM BKN008 OVC014 00/00 A2985 RMK AO2 T00020000
KUNU 260035Z AUTO 00000KT 10SM UP SCT007 BKN014 OVC018 00/00 A2984 RMK AO2 T00020000
KUNU 260015Z AUTO 00000KT 10SM SCT012 BKN018 OVC044 00/00 A2983 RMK AO2 T00031001
KUNU 252355Z AUTO 00000KT 10SM OVC018 00/00 A2983 RMK AO2 T00031002 10006 20000
KUNU 252335Z AUTO 00000KT 10SM OVC018 00/00 A2983 RMK AO2 T00031003
KUNU 252315Z AUTO 30003KT 10SM OVC020 00/00 A2982 RMK AO2 T00031003
KUNU 252255Z AUTO 00000KT 10SM OVC020 00/00 A2981 RMK AO2 T00041005
KUNU 252235Z AUTO 29003KT 10SM BKN017 OVC022 01/00 A2981 RMK AO2 T00051005
KUNU 252215Z AUTO 30003KT 10SM BKN015 OVC024 01/M01 A2981 RMK AO2 T00051006
KUNU 252155Z AUTO 30003KT 10SM OVC013 01/M01 A2981 RMK AO2 T00051007
KUNU 252135Z AUTO 29004KT 10SM OVC013 01/M01 A2980 RMK AO2 T00051008
KUNU 252115Z AUTO 00000KT 10SM OVC013 01/M01 A2980 RMK AO2 T00051008
KUNU 252055Z AUTO 31003KT 10SM OVC013 01/M01 A2979 RMK AO2 T00051009
KUNU 252035Z AUTO 00000KT 10SM OVC013 01/M01 A2979 RMK AO2 T00051009
KUNU 252015Z AUTO 29004KT 10SM OVC013 00/M01 A2979 RMK AO2 T00031010
KUNU 251955Z AUTO 30003KT 10SM OVC013 00/M01 A2979 RMK AO2 T00031008
KUNU 251935Z AUTO 00000KT 10SM OVC013 00/M01 A2979 RMK AO2 T00011009
KUNU 251915Z AUTO 00000KT 10SM OVC013 00/M01 A2979 RMK AO2 T00001010
KUNU 251855Z AUTO 31004KT 10SM SCT007 OVC013 00/M01 A2979 RMK AO2 T00001009
KUNU 251835Z AUTO 31003KT 10SM BKN007 OVC013 00/M01 A2979 RMK AO2 T00001006
KUNU 251815Z AUTO 31003KT 10SM OVC007 00/00 A2979 RMK AO2 T00011005
KUNU 251755Z AUTO 30004KT 10SM OVC005 00/00 A2979 RMK AO2 60007 T00001005 10001 21004
KUNU 251735Z AUTO 00000KT 10SM OVC005 00/00 A2980 RMK AO2 T00001005
KUNU 251715Z AUTO 00000KT 4SM -SN OVC005 00/00 A2980 RMK AO2 T00001003
KUNU 251655Z AUTO 00000KT 1 3/4SM -SN OVC005 00/00 A2980 RMK AO2 P0001 T00001002
KUNU 251635Z AUTO 00000KT 2 1/2SM -SN OVC003 00/00 A2980 RMK AO2 P0001 T00001002
KUNU 251615Z AUTO 00000KT 1 1/2SM -SN OVC003 00/00 A2979 RMK AO2 P0001 T10011003
KUNU 251555Z AUTO 00000KT 1 1/4SM -SN OVC003 00/00 A2979 RMK AO2 T10011002
KUNU 251535Z AUTO 00000KT 1 1/2SM -SN OVC003 00/00 A2979 RMK AO2 T10021003
KUNU 251515Z AUTO 00000KT 2SM -SN OVC003 00/00 A2979 RMK AO2 T10021004
KUNU 251455Z AUTO 00000KT 1 3/4SM -SN OVC003 00/00 A2978 RMK AO2 P0001 60006 T10021003
KUNU 251435Z AUTO 00000KT 1 3/4SM -SN OVC003 00/00 A2978 RMK AO2 T10031005
KUNU 251415Z AUTO 00000KT 1 1/4SM -SN OVC003 00/00 A2978 RMK AO2 T10031005
KUNU 251355Z AUTO 00000KT 1 1/4SM -SN OVC003 00/00 A2978 RMK AO2 P0003 T10031005
KUNU 251335Z AUTO 00000KT 3/4SM -SN OVC003 00/00 A2978 RMK AO2 P0002 T10031005
KUNU 251315Z AUTO 00000KT 1SM -SN OVC003 00/00 A2977 RMK AO2 P0001 T10031005
KUNU 251255Z AUTO 00000KT 3/4SM -SN OVC003 00/00 A2977 RMK AO2 P0002 T10031005
KUNU 251235Z AUTO 00000KT 1SM -SN OVC003 00/00 A2977 RMK AO2 P0001 T10031005
KUNU 251215Z AUTO 00000KT 1SM -SN OVC003 00/00 A2976 RMK AO2 P0001 T10031005
KUNU 251155Z AUTO 00000KT 1 1/4SM -SN OVC005 00/00 A2976 RMK AO2 P0001 60003 70010 T10031005 10000 21003
KUNU 251135Z AUTO 00000KT 1 1/2SM -SN OVC005 00/00 A2976 RMK AO2 P0001 T10031005
KUNU 251115Z AUTO 00000KT 1 1/4SM -SN OVC005 00/00 A2975 RMK AO2 T10031005
KUNU 251055Z AUTO 00000KT 1 1/4SM -SN OVC005 00/00 A2975 RMK AO2 P0001 T10021003
KUNU 251035Z AUTO 00000KT 1 1/4SM -SN OVC005 00/00 A2975 RMK AO2 P0001 T10021003
KUNU 251015Z AUTO 00000KT 1 3/4SM -SN OVC005 00/00 A2975 RMK AO2 T10021003
KUNU 250955Z AUTO 00000KT 2SM -SN OVC005 00/00 A2975 RMK AO2 T10021002
KUNU 250935Z AUTO 00000KT 1 1/2SM -SN OVC005 00/00 A2975 RMK AO2 T10021002
KUNU 250915Z AUTO 00000KT 1 3/4SM -SN OVC005 00/00 A2976 RMK AO2 T10021002
KUNU 250855Z AUTO 00000KT 2SM -SN OVC005 00/00 A2975 RMK AO2 60001 T10011002
KUNU 250835Z AUTO 00000KT 2 1/2SM -SN OVC003 00/00 A2976 RMK AO2 T10011001
KUNU 250815Z AUTO 00000KT 1 1/4SM -SN OVC003 00/00 A2977 RMK AO2 T10011001
KUNU 250755Z AUTO 00000KT 3/4SM -SN OVC003 00/00 A2976 RMK AO2 P0001 T10011001
KUNU 250735Z AUTO 00000KT 1SM -SN OVC003 00/00 A2976 RMK AO2 T10011002
KUNU 250715Z AUTO 00000KT 3SM -SN OVC003 00/00 A2976 RMK AO2 T10011001
KUNU 250655Z AUTO 33003KT 2 1/2SM -SN OVC003 00/00 A2976 RMK AO2 T10011001
KUNU 250635Z AUTO 33003KT 2SM -SN OVC003 00/00 A2976 RMK AO2 T00001001
KUNU 250615Z AUTO 33003KT 1 3/4SM -SN OVC003 00/00 A2976 RMK AO2 T10011001
KUNU 250555Z AUTO 34003KT 2 1/2SM -SN OVC003 00/00 A2977 RMK AO2 60007 T00001001 10002 21001 400111005
KUNU 250535Z AUTO 34003KT 3SM -SN OVC003 00/00 A2977 RMK AO2 T00001001
KUNU 250515Z AUTO 35004KT 3SM -SN OVC003 00/00 A2978 RMK AO2 T00001001
KUNU 250455Z AUTO 35003KT 2 1/2SM -SN OVC003 00/00 A2978 RMK AO2 T10011001
KUNU 250435Z AUTO 34004KT 2SM -SN OVC003 00/00 A2978 RMK AO2 T10011001
KUNU 250415Z AUTO 35003KT 2SM -SN OVC003 00/00 A2979 RMK AO2 T00000000
KUNU 250355Z AUTO 35004KT 3SM -SN OVC003 00/00 A2979 RMK AO2 T00000000
KUNU 250335Z AUTO 35003KT 3SM -SN OVC003 00/00 A2980 RMK AO2 T00000000
KUNU 250315Z AUTO 35004KT 4SM BR OVC003 00/00 A2980 RMK AO2 T00000000
KUNU 250255Z AUTO 34004KT 4SM -SN OVC003 00/00 A2980 RMK AO2 P0002 60007 T00000000
KUNU 250235Z AUTO 00000KT 1 1/4SM -SN OVC003 00/00 A2981 RMK AO2 P0002 T00000000
KUNU 250215Z AUTO 00000KT 1SM -SN OVC003 00/00 A2981 RMK AO2 P0001 T00000000
KUNU 250155Z AUTO 00000KT 1 1/4SM -SN OVC003 00/00 A2981 RMK AO2 P0002 T00000000
KUNU 250135Z AUTO 35003KT 1SM -SN OVC003 00/00 A2981 RMK AO2 P0001 T00000000
KUNU 250115Z AUTO 00000KT 3/4SM -SN OVC003 00/00 A2981 RMK AO2 P0001 T00000000
KUNU 250055Z AUTO 35003KT 1SM -SN OVC003 00/00 A2981 RMK AO2 P0002 T00000000
KUNU 250035Z AUTO 36003KT 1 1/2SM UP OVC003 00/00 A2982 RMK AO2 P0001 T00000000
KUNU 250015Z AUTO 00000KT 1 1/2SM UP OVC003 00/00 A2982 RMK AO2 P0001 T00000000
KUNU 242355Z AUTO 01004KT 3/4SM -RA OVC003 00/00 A2982 RMK AO2 T00020002 10011 20002
KUNU 242335Z AUTO 01005KT 1/4SM -RA OVC003 01/01 A2982 RMK AO2 T00050005
KUNU 242315Z AUTO 36005KT 1/4SM FG OVC003 01/01 A2982 RMK AO2 T00060005
KUNU 242255Z AUTO 36005KT 1/4SM FG OVC003 01/01 A2982 RMK AO2 T00060006
KUNU 242235Z AUTO 36004KT 1/4SM FG OVC003 01/01 A2982 RMK AO2 T00070007
KUNU 242215Z AUTO 36005KT 1/2SM FG OVC003 01/01 A2982 RMK AO2 T00070007
KUNU 242155Z AUTO 36004KT 1/2SM FG OVC003 01/01 A2982 RMK AO2 T00070007
KUNU 242135Z AUTO 36005KT 1/2SM FG OVC003 01/01 A2982 RMK AO2 T00070006
KUNU 242115Z AUTO 36004KT 3/4SM BR OVC003 01/01 A2983 RMK AO2 T00070007